Time;durP1;ratioP1;P1;durP2;ratioP2;P2;SDS_P1;SDS_P2;PMS_P1;PMS_P2;Temp;Humidity;BMP_temperature;BMP_pressure;BME280_temperature;BME280_humidity;BME280_pressure;Samples;Min_cycle;Max_cycle;Signal;HPM_P1;HPM_P2
2021/10/15 00:00:13;;;;;;;8.32;6.20;;;13.90;99.90;;;;;;4978490;28;20027;-34
2021/10/15 00:02:38;;;;;;;8.20;6.15;;;13.90;99.90;;;;;;4987069;28;20041;-35
2021/10/15 00:05:06;;;;;;;6.70;5.72;;;13.90;99.90;;;;;;4980210;28;20047;-36
2021/10/15 00:07:31;;;;;;;6.95;5.78;;;13.80;99.90;;;;;;4984930;28;20023;-35
2021/10/15 00:09:57;;;;;;;6.28;5.53;;;13.80;99.90;;;;;;4983011;28;20030;-36
2021/10/15 00:12:22;;;;;;;8.40;6.38;;;13.80;99.90;;;;;;4981434;28;20026;-35
2021/10/15 00:14:48;;;;;;;7.63;6.40;;;13.80;99.90;;;;;;4984060;28;20022;-35
2021/10/15 00:17:14;;;;;;;5.95;5.30;;;13.70;99.90;;;;;;4979177;28;20018;-35
2021/10/15 00:19:39;;;;;;;8.45;6.22;;;13.80;99.90;;;;;;4986204;28;20026;-37
2021/10/15 00:22:05;;;;;;;6.85;5.85;;;13.70;99.90;;;;;;4977044;28;20031;-36
2021/10/15 00:24:30;;;;;;;7.25;5.88;;;13.70;99.90;;;;;;4986276;28;20502;-34
2021/10/15 00:26:56;;;;;;;9.60;6.40;;;13.70;99.90;;;;;;4977262;28;20018;-36
2021/10/15 00:29:24;;;;;;;8.80;6.15;;;13.70;99.90;;;;;;4988443;28;20050;-36
2021/10/15 00:31:50;;;;;;;8.40;5.93;;;13.70;99.90;;;;;;4980012;28;20018;-35
2021/10/15 00:34:16;;;;;;;7.40;5.70;;;13.70;99.90;;;;;;4969509;28;20134;-34
2021/10/15 00:36:41;;;;;;;7.13;6.00;;;13.70;99.90;;;;;;4980599;28;20088;-35
2021/10/15 00:39:07;;;;;;;7.50;6.47;;;13.70;99.90;;;;;;4968687;28;20026;-35
2021/10/15 00:41:32;;;;;;;8.00;5.65;;;13.70;99.90;;;;;;4978997;28;20469;-36
2021/10/15 00:44:07;;;;;;;8.63;6.35;;;13.70;99.90;;;;;;4970197;28;20027;-36
2021/10/15 00:46:35;;;;;;;6.93;5.47;;;13.70;99.90;;;;;;4969728;28;20055;-36
2021/10/15 00:49:05;;;;;;;7.10;5.65;;;13.70;99.90;;;;;;4968746;28;20122;-35
2021/10/15 00:51:31;;;;;;;8.20;6.45;;;13.70;99.90;;;;;;4973621;28;20038;-35
2021/10/15 00:53:57;;;;;;;7.18;6.00;;;13.70;99.90;;;;;;4982343;28;20030;-36
2021/10/15 00:56:24;;;;;;;7.25;5.25;;;13.70;99.90;;;;;;4982620;28;20022;-36
2021/10/15 00:58:49;;;;;;;7.95;6.03;;;13.70;99.90;;;;;;4980809;28;20029;-36
2021/10/15 01:01:15;;;;;;;6.97;5.60;;;13.70;99.90;;;;;;4984313;28;20030;-36
2021/10/15 01:03:40;;;;;;;6.38;5.05;;;13.70;99.90;;;;;;4977466;28;20146;-36
2021/10/15 01:06:06;;;;;;;6.65;5.22;;;13.70;99.90;;;;;;4986146;28;20078;-36
2021/10/15 01:08:38;;;;;;;7.72;6.10;;;13.70;99.90;;;;;;4975953;28;20046;-36
2021/10/15 01:11:03;;;;;;;8.07;6.63;;;13.70;99.90;;;;;;4986745;28;20462;-35
2021/10/15 01:13:30;;;;;;;8.50;6.40;;;13.70;99.90;;;;;;4975582;28;20540;-35
2021/10/15 01:16:03;;;;;;;7.60;6.10;;;13.70;99.90;;;;;;4987340;28;20107;-37
2021/10/15 01:18:29;;;;;;;7.85;6.43;;;13.70;99.90;;;;;;4975317;28;20474;-35
2021/10/15 01:20:54;;;;;;;8.95;6.80;;;13.70;99.90;;;;;;4987197;28;20033;-37
2021/10/15 01:23:20;;;;;;;9.63;6.40;;;13.70;99.90;;;;;;4975048;28;20038;-35
2021/10/15 01:25:46;;;;;;;6.55;5.53;;;13.70;99.90;;;;;;4987280;28;20053;-37
2021/10/15 01:28:11;;;;;;;8.45;6.13;;;13.70;99.90;;;;;;4975537;28;20501;-36
2021/10/15 01:30:36;;;;;;;8.55;6.07;;;13.70;99.90;;;;;;4985920;28;20031;-45
2021/10/15 01:33:02;;;;;;;7.38;5.95;;;13.70;99.90;;;;;;4978739;28;20022;-36
2021/10/15 01:35:27;;;;;;;6.38;5.53;;;13.70;99.90;;;;;;4982935;28;20113;-35
2021/10/15 01:37:53;;;;;;;9.18;6.65;;;13.70;99.90;;;;;;4981298;28;20023;-37
2021/10/15 01:40:18;;;;;;;7.38;6.07;;;13.80;99.90;;;;;;4981153;28;20470;-35
2021/10/15 01:42:54;;;;;;;8.02;6.63;;;13.70;99.90;;;;;;4982969;28;20041;-35
2021/10/15 01:45:20;;;;;;;9.05;6.88;;;13.70;99.90;;;;;;4979419;28;20371;-35
2021/10/15 01:47:46;;;;;;;7.63;6.13;;;13.70;99.90;;;;;;4973009;28;20027;-36
2021/10/15 01:50:11;;;;;;;9.95;7.50;;;13.70;99.90;;;;;;4977014;28;20039;-35
2021/10/15 01:52:37;;;;;;;9.95;6.80;;;13.70;99.90;;;;;;4968646;28;20041;-36
2021/10/15 01:55:07;;;;;;;9.98;7.97;;;13.70;99.90;;;;;;4978965;28;20026;-35
2021/10/15 01:57:33;;;;;;;8.80;6.82;;;13.70;99.90;;;;;;4967863;28;20034;-36
2021/10/15 01:59:58;;;;;;;7.97;6.13;;;13.70;99.90;;;;;;4979025;28;20576;-37
2021/10/15 02:02:24;;;;;;;8.52;6.45;;;13.80;99.90;;;;;;4968210;28;20036;-36
2021/10/15 02:04:49;;;;;;;7.60;5.57;;;13.70;99.90;;;;;;4981202;28;20050;-35
2021/10/15 02:07:15;;;;;;;8.77;7.18;;;13.80;99.90;;;;;;4971672;28;20015;-37
2021/10/15 02:09:40;;;;;;;10.57;6.72;;;13.70;99.90;;;;;;4982252;28;20108;-35
2021/10/15 02:12:06;;;;;;;5.70;5.10;;;13.70;99.90;;;;;;4971449;28;20022;-36
2021/10/15 02:14:32;;;;;;;6.22;5.47;;;13.70;99.90;;;;;;4980037;28;20591;-35
2021/10/15 02:16:57;;;;;;;8.95;6.68;;;13.70;99.90;;;;;;4972934;28;20030;-36
2021/10/15 02:19:23;;;;;;;8.02;6.90;;;13.70;99.90;;;;;;4977359;28;20045;-36
2021/10/15 02:21:49;;;;;;;9.77;6.82;;;13.70;99.90;;;;;;4975941;28;20029;-36
2021/10/15 02:24:14;;;;;;;10.05;7.43;;;13.70;99.90;;;;;;4974679;28;20030;-36
2021/10/15 02:26:40;;;;;;;7.97;6.50;;;13.70;99.90;;;;;;4978611;28;20025;-36
2021/10/15 02:29:05;;;;;;;7.88;6.40;;;13.60;99.90;;;;;;4972091;28;20201;-35
2021/10/15 02:31:31;;;;;;;9.02;7.28;;;13.70;99.90;;;;;;4979947;28;20041;-36
2021/10/15 02:33:57;;;;;;;9.77;6.57;;;13.70;99.90;;;;;;4972260;28;20030;-36
2021/10/15 02:36:22;;;;;;;7.30;5.70;;;13.60;99.90;;;;;;4981366;28;20033;-35
2021/10/15 02:38:48;;;;;;;10.02;7.05;;;13.60;99.90;;;;;;4970348;28;20105;-36
2021/10/15 02:41:14;;;;;;;9.05;6.93;;;13.70;99.90;;;;;;4982586;28;20510;-36
2021/10/15 02:43:39;;;;;;;8.35;6.47;;;13.60;99.90;;;;;;4970203;28;20037;-35
2021/10/15 02:46:05;;;;;;;10.23;7.45;;;13.60;99.90;;;;;;4981958;28;20429;-36
2021/10/15 02:48:31;;;;;;;9.73;8.27;;;13.60;99.90;;;;;;4970333;28;20027;-35
2021/10/15 02:50:56;;;;;;;8.98;7.43;;;13.50;99.90;;;;;;4981526;28;20034;-36
2021/10/15 02:53:22;;;;;;;8.30;6.65;;;13.50;99.90;;;;;;4970321;28;20110;-36
2021/10/15 02:55:47;;;;;;;7.70;6.63;;;13.50;99.90;;;;;;4978915;28;20034;-34
2021/10/15 02:58:13;;;;;;;8.48;6.40;;;13.50;99.90;;;;;;4973861;28;20015;-35
2021/10/15 03:00:38;;;;;;;7.40;6.55;;;13.50;99.90;;;;;;4974910;28;20581;-35
2021/10/15 03:03:04;;;;;;;8.38;6.93;;;13.50;99.90;;;;;;4976497;28;20062;-37
2021/10/15 03:05:29;;;;;;;8.48;6.55;;;13.50;99.90;;;;;;4972826;28;20054;-35
2021/10/15 03:07:55;;;;;;;9.35;7.22;;;13.50;99.90;;;;;;4978509;28;20093;-36
2021/10/15 03:10:20;;;;;;;8.68;6.82;;;13.50;99.90;;;;;;4971439;28;20034;-37
2021/10/15 03:12:46;;;;;;;8.95;7.53;;;13.50;99.90;;;;;;4980518;28;20027;-35
2021/10/15 03:15:11;;;;;;;9.35;7.47;;;13.50;99.90;;;;;;4969615;28;20072;-36
2021/10/15 03:17:37;;;;;;;11.20;7.80;;;13.50;99.90;;;;;;4979931;28;20022;-36
2021/10/15 03:20:03;;;;;;;8.73;6.68;;;13.50;99.90;;;;;;4969852;28;20015;-36
2021/10/15 03:22:30;;;;;;;10.40;7.60;;;13.50;99.90;;;;;;4981311;28;20030;-35
2021/10/15 03:24:56;;;;;;;8.27;6.68;;;13.50;99.90;;;;;;4970054;28;20062;-35
2021/10/15 03:27:21;;;;;;;8.27;6.82;;;13.50;99.90;;;;;;4981173;28;20070;-35
2021/10/15 03:29:47;;;;;;;9.30;6.97;;;13.40;99.90;;;;;;4968984;28;20030;-34
2021/10/15 03:32:12;;;;;;;10.88;7.43;;;13.40;99.90;;;;;;4979825;28;20070;-37
2021/10/15 03:34:38;;;;;;;10.70;8.23;;;13.40;99.90;;;;;;4970405;28;20054;-35
2021/10/15 03:37:03;;;;;;;10.30;7.68;;;13.40;99.90;;;;;;4977148;28;20015;-36
2021/10/15 03:39:29;;;;;;;9.93;8.00;;;13.40;99.90;;;;;;4974001;28;20520;-34
2021/10/15 03:41:55;;;;;;;12.18;7.85;;;13.40;99.90;;;;;;4973366;28;20018;-35
2021/10/15 03:44:20;;;;;;;9.95;7.55;;;13.40;99.90;;;;;;4976336;28;20041;-36
2021/10/15 03:46:46;;;;;;;8.30;7.00;;;13.40;99.90;;;;;;4971588;28;20110;-35
2021/10/15 03:49:11;;;;;;;8.82;7.20;;;13.40;99.90;;;;;;4978146;28;20042;-36
2021/10/15 03:51:37;;;;;;;11.20;7.82;;;13.40;99.90;;;;;;4970030;28;20097;-35
2021/10/15 03:54:02;;;;;;;10.50;7.93;;;13.40;99.90;;;;;;4980089;28;20046;-36
2021/10/15 03:56:28;;;;;;;8.93;7.40;;;13.40;99.90;;;;;;4969096;28;20043;-37
2021/10/15 03:58:53;;;;;;;9.98;6.93;;;13.40;99.90;;;;;;4979908;28;20515;-34
2021/10/15 04:01:19;;;;;;;8.40;7.10;;;13.40;99.90;;;;;;4969227;28;20390;-36
2021/10/15 04:03:44;;;;;;;11.98;8.00;;;13.40;99.90;;;;;;4980285;28;20037;-36
2021/10/15 04:06:10;;;;;;;9.20;7.43;;;13.40;99.90;;;;;;4968699;28;20058;-37
2021/10/15 04:08:36;;;;;;;11.52;7.88;;;13.40;99.90;;;;;;4980103;28;20041;-37
2021/10/15 04:11:01;;;;;;;10.10;7.07;;;13.40;99.90;;;;;;4969014;28;20127;-35
2021/10/15 04:13:27;;;;;;;9.63;6.47;;;13.40;99.90;;;;;;4977173;28;20057;-35
2021/10/15 04:15:52;;;;;;;11.23;7.82;;;13.40;99.90;;;;;;4972536;28;20134;-37
2021/10/15 04:18:18;;;;;;;9.32;7.40;;;13.40;99.90;;;;;;4974779;28;20489;-35
2021/10/15 04:20:43;;;;;;;8.73;6.70;;;13.40;99.90;;;;;;4974127;28;20089;-36
2021/10/15 04:23:09;;;;;;;10.30;7.47;;;13.40;99.90;;;;;;4973098;28;20050;-35
2021/10/15 04:25:34;;;;;;;10.95;7.72;;;13.50;99.90;;;;;;4968321;28;20058;-35
2021/10/15 04:28:00;;;;;;;9.80;8.48;;;13.50;99.90;;;;;;4970264;28;20027;-35
2021/10/15 04:30:26;;;;;;;8.57;7.00;;;13.40;99.90;;;;;;4978737;28;20467;-36
2021/10/15 04:32:51;;;;;;;8.57;7.03;;;13.40;99.90;;;;;;4969493;28;20026;-35
2021/10/15 04:35:17;;;;;;;10.05;7.30;;;13.50;99.90;;;;;;4979519;28;20042;-36
2021/10/15 04:37:42;;;;;;;10.20;8.35;;;13.50;99.90;;;;;;4967950;28;20035;-35
2021/10/15 04:40:08;;;;;;;10.15;6.75;;;13.50;99.90;;;;;;4980388;28;20031;-35
2021/10/15 04:42:37;;;;;;;10.18;7.78;;;13.50;99.90;;;;;;4967751;28;20023;-37
2021/10/15 04:45:03;;;;;;;11.60;8.50;;;13.50;99.90;;;;;;4980107;28;20026;-35
2021/10/15 04:47:28;;;;;;;11.18;7.25;;;13.50;99.90;;;;;;4979011;28;20036;-37
2021/10/15 04:49:54;;;;;;;11.32;8.70;;;13.50;99.90;;;;;;4976807;28;20668;-35
2021/10/15 04:52:19;;;;;;;9.27;7.25;;;13.50;99.90;;;;;;4986075;28;20334;-36
2021/10/15 04:54:45;;;;;;;9.65;7.38;;;13.50;99.90;;;;;;4978218;28;20018;-36
2021/10/15 04:57:10;;;;;;;12.10;8.73;;;13.50;99.90;;;;;;4983842;28;20034;-36
2021/10/15 04:59:36;;;;;;;11.10;8.52;;;13.50;99.90;;;;;;4980793;28;20031;-36
2021/10/15 05:02:01;;;;;;;10.38;8.35;;;13.50;99.90;;;;;;4981328;28;20030;-37
2021/10/15 05:04:27;;;;;;;9.32;8.27;;;13.50;99.90;;;;;;4983447;28;20092;-35
2021/10/15 05:06:56;;;;;;;10.73;8.27;;;13.50;99.90;;;;;;4978416;28;20027;-35
2021/10/15 05:11:57;;;;;;;12.23;7.97;;;13.50;99.90;;;;;;4968107;28;20122;-35
2021/10/15 05:14:23;;;;;;;9.73;8.23;;;13.50;99.90;;;;;;4968657;28;20105;-35
2021/10/15 05:16:52;;;;;;;10.43;7.80;;;13.50;99.90;;;;;;4978925;28;20015;-35
2021/10/15 05:19:17;;;;;;;12.18;8.68;;;13.60;99.90;;;;;;4969039;28;20027;-35
2021/10/15 05:21:43;;;;;;;10.60;8.52;;;13.50;99.90;;;;;;4977948;28;20477;-35
2021/10/15 05:24:08;;;;;;;10.13;7.95;;;13.60;99.90;;;;;;4968250;28;20078;-36
2021/10/15 05:26:34;;;;;;;10.23;8.00;;;13.50;99.90;;;;;;4979137;28;20517;-36
2021/10/15 05:28:59;;;;;;;9.23;7.65;;;13.50;99.90;;;;;;4968170;28;20081;-35
2021/10/15 05:31:25;;;;;;;11.20;8.77;;;13.50;99.90;;;;;;4979834;28;20118;-35
2021/10/15 05:33:50;;;;;;;11.82;8.85;;;13.50;99.90;;;;;;4967495;28;20034;-36
2021/10/15 05:36:16;;;;;;;8.23;7.43;;;13.50;99.90;;;;;;4972279;28;20065;-37
2021/10/15 05:38:41;;;;;;;12.75;9.57;;;13.50;99.90;;;;;;4987590;28;20339;-35
2021/10/15 05:41:07;;;;;;;9.68;8.20;;;13.50;99.90;;;;;;4983215;28;20121;-36
2021/10/15 05:43:32;;;;;;;11.18;8.77;;;13.40;99.90;;;;;;4978646;28;20089;-37
2021/10/15 05:45:58;;;;;;;12.43;9.07;;;13.40;99.90;;;;;;4975501;28;20476;-35
2021/10/15 05:48:24;;;;;;;10.02;8.73;;;13.40;99.90;;;;;;4972122;28;20038;-35
2021/10/15 05:50:50;;;;;;;12.10;9.15;;;13.40;99.90;;;;;;4973156;28;20034;-36
2021/10/15 05:53:18;;;;;;;11.98;9.15;;;13.40;99.90;;;;;;4980129;28;20669;-36
2021/10/15 06:00:53;;;;;;;12.20;8.95;;;13.50;99.90;;;;;;4972502;28;20045;-36
2021/10/15 06:03:23;;;;;;;11.05;8.95;;;13.50;99.90;;;;;;4980923;28;20422;-37
2021/10/15 06:16:36;;;;;;;11.30;9.15;;;13.50;99.90;;;;;;4986473;28;20038;-36
2021/10/15 06:19:07;;;;;;;14.55;9.65;;;13.50;99.90;;;;;;4972176;28;20782;-36
2021/10/15 06:21:33;;;;;;;11.88;8.80;;;13.50;99.90;;;;;;4983072;28;20030;-36
2021/10/15 06:23:59;;;;;;;11.43;8.48;;;13.50;99.90;;;;;;4976188;28;20033;-36
2021/10/15 06:26:25;;;;;;;13.70;9.48;;;13.60;99.90;;;;;;4988788;28;20030;-36
2021/10/15 06:28:51;;;;;;;11.40;8.48;;;13.60;99.90;;;;;;4977811;28;20481;-36
2021/10/15 06:31:16;;;;;;;11.88;9.60;;;13.60;99.90;;;;;;4988989;28;20062;-35
2021/10/15 06:33:42;;;;;;;12.55;9.95;;;13.60;99.90;;;;;;4975898;28;20026;-36
2021/10/15 06:36:08;;;;;;;14.30;9.90;;;13.60;99.90;;;;;;4990405;28;20031;-36
2021/10/15 06:38:33;;;;;;;14.70;10.40;;;13.70;99.90;;;;;;4977544;28;20061;-36
2021/10/15 06:40:59;;;;;;;13.90;10.55;;;13.70;99.90;;;;;;4989292;28;20026;-35
2021/10/15 06:43:24;;;;;;;13.23;9.73;;;13.70;99.90;;;;;;4981298;28;20023;-36
2021/10/15 06:45:51;;;;;;;12.45;9.50;;;13.70;99.90;;;;;;4967982;28;20030;-36
2021/10/15 06:48:17;;;;;;;12.27;9.63;;;13.60;99.90;;;;;;4979460;28;20109;-37
2021/10/15 06:50:42;;;;;;;11.77;9.52;;;13.60;99.90;;;;;;4976322;28;20129;-36
2021/10/15 06:53:09;;;;;;;13.85;9.82;;;13.60;99.90;;;;;;4973835;28;20030;-36
2021/10/15 06:55:34;;;;;;;13.68;9.85;;;13.60;99.90;;;;;;4978207;28;20045;-36
2021/10/15 06:58:00;;;;;;;17.38;11.35;;;13.50;99.90;;;;;;4970774;28;20014;-39
2021/10/15 07:00:26;;;;;;;12.80;11.43;;;13.40;99.90;;;;;;4979010;28;20107;-36
2021/10/15 07:02:51;;;;;;;16.15;11.43;;;13.40;99.90;;;;;;4988331;28;20030;-35
2021/10/15 07:05:17;;;;;;;25.85;13.55;;;13.40;99.90;;;;;;4978209;28;20054;-37
2021/10/15 07:07:43;;;;;;;13.05;10.35;;;13.30;99.90;;;;;;4989041;28;20018;-38
2021/10/15 07:10:09;;;;;;;10.10;7.82;;;13.20;99.90;;;;;;4977421;28;20089;-37
2021/10/15 07:12:36;;;;;;;7.20;6.30;;;13.10;99.90;;;;;;4988541;28;20027;-37
2021/10/15 07:15:03;;;;;;;5.65;4.88;;;13.00;99.90;;;;;;4976918;28;20027;-38
2021/10/15 07:17:28;;;;;;;6.80;3.90;;;12.90;99.90;;;;;;4989028;28;20102;-38
2021/10/15 07:19:54;;;;;;;4.03;2.80;;;12.80;99.90;;;;;;4978028;28;20378;-37
2021/10/15 07:22:19;;;;;;;2.83;2.13;;;12.80;99.90;;;;;;4989013;28;20493;-37
2021/10/15 07:24:45;;;;;;;1.90;1.27;;;12.70;99.90;;;;;;4985002;28;20576;-38
2021/10/15 07:27:10;;;;;;;1.15;0.98;;;12.60;99.90;;;;;;4975584;28;20030;-36
2021/10/15 07:29:36;;;;;;;0.90;0.73;;;12.60;99.90;;;;;;4982835;28;20031;-38
2021/10/15 07:32:02;;;;;;;1.20;0.65;;;12.50;99.90;;;;;;4983319;28;20050;-38
2021/10/15 07:34:27;;;;;;;0.85;0.60;;;12.50;99.90;;;;;;4984658;28;20033;-36
2021/10/15 07:36:53;;;;;;;2.40;0.60;;;12.50;99.90;;;;;;4980524;28;20074;-36
2021/10/15 07:39:18;;;;;;;1.48;0.50;;;12.50;99.90;;;;;;4987169;28;20021;-36
2021/10/15 07:41:45;;;;;;;2.05;0.47;;;12.40;99.90;;;;;;4977263;28;20034;-37
2021/10/15 07:44:13;;;;;;;2.53;0.68;;;12.40;99.90;;;;;;4987419;28;20113;-37
2021/10/15 07:46:39;;;;;;;1.58;0.70;;;12.30;99.90;;;;;;4982714;28;20030;-38
2021/10/15 07:49:06;;;;;;;1.40;0.50;;;12.20;99.90;;;;;;4988125;28;20334;-36
2021/10/15 07:51:32;;;;;;;1.50;0.40;;;12.10;99.90;;;;;;4976429;28;20694;-37
2021/10/15 07:53:57;;;;;;;0.88;0.50;;;12.10;99.90;;;;;;4989295;28;20055;-36
2021/10/15 07:56:23;;;;;;;1.88;0.47;;;12.00;99.90;;;;;;4975536;28;20030;-36
2021/10/15 07:58:49;;;;;;;1.52;0.50;;;12.00;99.90;;;;;;4988544;28;20022;-37
2021/10/15 08:01:14;;;;;;;1.55;0.30;;;12.00;99.90;;;;;;4976990;28;20034;-39
2021/10/15 08:03:40;;;;;;;1.20;0.40;;;12.00;99.90;;;;;;4986711;28;20023;-36
2021/10/15 08:06:06;;;;;;;2.38;0.40;;;12.00;99.90;;;;;;4979850;28;20047;-38
2021/10/15 08:08:32;;;;;;;0.95;0.32;;;12.00;99.90;;;;;;4983287;28;20030;-37
2021/10/15 08:10:57;;;;;;;1.70;0.52;;;12.10;99.90;;;;;;4982934;28;20068;-37
2021/10/15 08:13:23;;;;;;;0.70;0.38;;;12.10;99.90;;;;;;4981561;28;20513;-36
2021/10/15 08:15:48;;;;;;;1.88;0.40;;;12.10;99.90;;;;;;4984506;28;20019;-40
2021/10/15 08:18:14;;;;;;;1.63;0.45;;;12.20;99.90;;;;;;4979433;28;20023;-36
2021/10/15 08:20:39;;;;;;;2.17;0.40;;;12.30;99.90;;;;;;4986202;28;20822;-37
2021/10/15 08:23:05;;;;;;;0.73;0.45;;;12.30;99.90;;;;;;4976736;28;20548;-37
2021/10/15 08:25:30;;;;;;;2.65;0.45;;;12.30;99.90;;;;;;4986538;28;20030;-36
2021/10/15 08:27:58;;;;;;;0.75;0.50;;;12.40;99.90;;;;;;4977503;28;20379;-38
2021/10/15 08:30:24;;;;;;;1.38;0.50;;;12.50;99.90;;;;;;4987458;28;20104;-38
2021/10/15 08:32:52;;;;;;;1.80;0.57;;;12.50;99.90;;;;;;4976019;28;20085;-37
2021/10/15 08:35:17;;;;;;;1.60;0.70;;;12.60;99.90;;;;;;4986676;28;20053;-37
2021/10/15 08:37:43;;;;;;;0.80;0.50;;;12.60;99.90;;;;;;4974243;28;20479;-36
2021/10/15 08:40:10;;;;;;;1.17;0.40;;;12.60;99.90;;;;;;4968962;28;20038;-37
2021/10/15 08:42:37;;;;;;;1.85;0.52;;;12.70;99.90;;;;;;4978886;28;20393;-37
2021/10/15 08:45:04;;;;;;;3.45;0.70;;;12.70;99.90;;;;;;4969849;28;20026;-37
2021/10/15 08:47:30;;;;;;;4.03;0.82;;;12.80;99.90;;;;;;4969254;28;20030;-38
2021/10/15 08:49:56;;;;;;;1.52;0.70;;;12.80;99.90;;;;;;4985910;28;20037;-36
2021/10/15 08:52:21;;;;;;;2.03;1.50;;;12.80;99.90;;;;;;4981624;28;20033;-36
2021/10/15 08:54:47;;;;;;;3.30;0.77;;;12.80;99.90;;;;;;4981227;28;20540;-39
2021/10/15 08:57:16;;;;;;;5.47;0.70;;;12.70;99.90;;;;;;4984140;28;20057;-36
2021/10/15 08:59:50;;;;;;;3.45;0.85;;;12.70;99.90;;;;;;4978609;28;20045;-36
2021/10/15 09:02:20;;;;;;;4.38;1.30;;;12.80;99.90;;;;;;4985126;28;20583;-38
2021/10/15 09:04:55;;;;;;;4.95;0.80;;;12.80;99.90;;;;;;4977532;28;20058;-36
2021/10/15 09:07:22;;;;;;;3.22;0.70;;;12.80;99.90;;;;;;4986095;28;20022;-37
2021/10/15 09:09:56;;;;;;;3.13;0.80;;;12.90;99.90;;;;;;4976844;28;20034;-38
2021/10/15 09:12:22;;;;;;;4.43;1.02;;;12.90;99.90;;;;;;4986251;28;21193;-36
2021/10/15 09:14:48;;;;;;;4.97;1.20;;;12.80;99.90;;;;;;4980459;28;20469;-36
2021/10/15 09:17:33;;;;;;;7.72;1.20;;;12.80;99.90;;;;;;4990389;28;20022;-38
2021/10/15 09:20:03;;;;;;;4.82;1.15;;;12.80;99.90;;;;;;4980178;28;20033;-39
2021/10/15 09:22:30;;;;;;;4.20;1.30;;;12.80;99.90;;;;;;4989651;28;20496;-37
2021/10/15 09:24:59;;;;;;;7.35;1.85;;;12.80;99.90;;;;;;4980775;28;20033;-36
2021/10/15 09:27:32;;;;;;;6.30;1.33;;;12.80;99.90;;;;;;4990751;28;20101;-38
2021/10/15 09:30:01;;;;;;;3.75;1.17;;;12.80;99.90;;;;;;4980172;28;20034;-36
2021/10/15 09:32:29;;;;;;;3.63;1.10;;;12.80;99.90;;;;;;4991244;28;20028;-36
2021/10/15 09:34:56;;;;;;;5.25;1.50;;;12.70;99.90;;;;;;4978479;28;20489;-35
2021/10/15 09:37:30;;;;;;;4.07;1.52;;;12.60;99.90;;;;;;4990985;28;20040;-36
2021/10/15 09:40:13;;;;;;;4.28;1.10;;;12.60;99.90;;;;;;4978307;28;20031;-36
2021/10/15 09:42:41;;;;;;;5.15;1.42;;;12.50;99.90;;;;;;4991023;28;20066;-37
2021/10/15 09:45:15;;;;;;;5.30;1.60;;;12.50;99.90;;;;;;4984216;28;20092;-35
2021/10/15 09:48:02;;;;;;;5.95;1.50;;;12.40;99.90;;;;;;4980067;28;20114;-36
2021/10/15 09:50:29;;;;;;;4.75;1.23;;;12.40;99.90;;;;;;4977905;28;20367;-36
2021/10/15 09:53:00;;;;;;;6.60;1.15;;;12.40;99.90;;;;;;4991353;28;20029;-36
2021/10/15 09:55:31;;;;;;;5.50;1.55;;;12.40;99.90;;;;;;4982995;28;20034;-38
2021/10/15 09:58:19;;;;;;;3.28;1.85;;;12.50;99.90;;;;;;4972318;28;20413;-35
2021/10/15 10:00:47;;;;;;;2.25;1.17;;;12.50;99.90;;;;;;4982714;28;20026;-37
2021/10/15 10:03:16;;;;;;;3.90;1.35;;;12.60;99.90;;;;;;4971678;28;20029;-37
2021/10/15 10:05:42;;;;;;;6.07;1.02;;;12.80;99.90;;;;;;4982173;28;20401;-36
2021/10/15 10:08:10;;;;;;;5.28;1.35;;;12.90;99.90;;;;;;4971104;28;20031;-37
2021/10/15 10:10:37;;;;;;;7.55;1.30;;;13.00;99.90;;;;;;4981188;28;20533;-37
2021/10/15 10:13:04;;;;;;;7.00;1.98;;;13.00;99.90;;;;;;4971761;28;20034;-35
2021/10/15 10:15:34;;;;;;;5.95;1.60;;;13.20;99.90;;;;;;4978757;28;20030;-37
2021/10/15 10:18:12;;;;;;;8.55;1.35;;;13.30;99.90;;;;;;4974125;28;20031;-38
2021/10/15 10:20:40;;;;;;;7.35;1.42;;;13.30;99.90;;;;;;4977382;28;20104;-36
2021/10/15 10:23:24;;;;;;;6.03;1.80;;;13.30;99.90;;;;;;4976441;28;20030;-36
2021/10/15 10:26:02;;;;;;;6.80;1.30;;;13.20;99.90;;;;;;4979121;28;20101;-36
2021/10/15 10:28:29;;;;;;;7.38;1.40;;;13.10;99.90;;;;;;4972079;28;20027;-36
2021/10/15 10:30:59;;;;;;;6.22;1.55;;;13.10;99.90;;;;;;4977997;28;20367;-37
2021/10/15 10:33:25;;;;;;;3.38;1.20;;;13.10;99.90;;;;;;4974698;28;20045;-38
2021/10/15 10:35:52;;;;;;;5.35;1.20;;;13.10;99.90;;;;;;4975878;28;20026;-36
2021/10/15 10:38:21;;;;;;;6.80;1.50;;;13.10;99.90;;;;;;4976155;28;20023;-36
2021/10/15 10:40:59;;;;;;;4.85;1.27;;;13.20;99.90;;;;;;4974681;28;20034;-36
2021/10/15 10:43:28;;;;;;;5.55;1.27;;;13.30;99.90;;;;;;4976049;28;20027;-36
2021/10/15 10:46:24;;;;;;;5.22;1.00;;;13.40;99.90;;;;;;4974023;28;20031;-37
2021/10/15 10:48:50;;;;;;;5.82;1.20;;;13.40;99.90;;;;;;4958670;28;20145;-38
2021/10/15 10:51:21;;;;;;;6.97;1.23;;;13.40;99.90;;;;;;4974090;28;20462;-38
2021/10/15 10:54:05;;;;;;;5.35;1.10;;;13.40;99.90;;;;;;4983088;28;20043;-36
2021/10/15 10:56:39;;;;;;;5.68;1.38;;;13.30;99.90;;;;;;4981916;28;20031;-37
2021/10/15 10:59:17;;;;;;;7.97;1.40;;;13.30;99.90;;;;;;4984366;28;20027;-36
2021/10/15 11:01:50;;;;;;;5.28;1.25;;;13.30;99.90;;;;;;4982566;28;20463;-38
2021/10/15 11:04:29;;;;;;;8.55;1.42;;;13.30;99.90;;;;;;4983718;28;20031;-36
2021/10/15 11:07:03;;;;;;;8.88;1.27;;;13.40;99.90;;;;;;4983297;28;20062;-37
2021/10/15 11:09:44;;;;;;;6.72;1.35;;;13.50;99.90;;;;;;4984399;28;20502;-37
2021/10/15 11:12:13;;;;;;;6.20;1.30;;;13.60;99.90;;;;;;4981815;28;20034;-37
2021/10/15 11:14:57;;;;;;;5.60;1.00;;;13.70;99.90;;;;;;4984161;28;20782;-36
2021/10/15 11:17:33;;;;;;;4.68;0.90;;;13.80;99.90;;;;;;4981972;28;20490;-36
2021/10/15 11:20:17;;;;;;;7.28;1.50;;;13.90;99.90;;;;;;4985643;28;20037;-36
2021/10/15 11:23:06;;;;;;;6.43;1.13;;;14.00;99.90;;;;;;4980043;28;20027;-36
2021/10/15 11:25:35;;;;;;;6.00;1.00;;;14.10;99.90;;;;;;4987799;28;20073;-37
2021/10/15 11:28:04;;;;;;;8.27;1.40;;;14.00;99.90;;;;;;4979651;28;20524;-36
2021/10/15 11:30:33;;;;;;;6.40;1.17;;;13.90;99.90;;;;;;4986737;28;20121;-37
2021/10/15 11:33:00;;;;;;;5.32;1.10;;;13.80;99.90;;;;;;4980450;28;20027;-36
2021/10/15 11:35:32;;;;;;;5.25;1.20;;;13.80;99.90;;;;;;4983720;28;20026;-38
2021/10/15 11:38:09;;;;;;;3.97;1.00;;;13.80;99.90;;;;;;4982764;28;20066;-36
2021/10/15 11:40:52;;;;;;;6.53;1.30;;;13.90;99.90;;;;;;4984150;28;20114;-37
2021/10/15 11:43:39;;;;;;;2.17;0.82;;;14.00;99.90;;;;;;4980815;28;20114;-37
2021/10/15 11:46:10;;;;;;;2.42;0.70;;;14.00;99.90;;;;;;4987605;28;20060;-36
2021/10/15 11:48:41;;;;;;;5.30;1.20;;;13.90;99.90;;;;;;4981062;28;20125;-37
2021/10/15 11:51:14;;;;;;;8.25;1.30;;;13.80;99.90;;;;;;4971969;28;20031;-36
2021/10/15 11:53:41;;;;;;;8.85;1.52;;;13.70;99.90;;;;;;4975766;28;20034;-36
2021/10/15 11:56:12;;;;;;;6.78;1.05;;;13.60;99.90;;;;;;4973805;28;20035;-38
2021/10/15 11:58:40;;;;;;;6.35;1.42;;;13.40;99.90;;;;;;4974677;28;20018;-36
2021/10/15 12:01:09;;;;;;;5.82;1.27;;;13.40;99.90;;;;;;4974195;28;20103;-37
2021/10/15 12:03:55;;;;;;;5.53;1.00;;;13.40;99.90;;;;;;4972790;28;20048;-37
2021/10/15 12:06:32;;;;;;;5.10;1.40;;;13.40;99.90;;;;;;4974377;28;20058;-36
2021/10/15 12:09:10;;;;;;;4.97;0.95;;;13.50;99.90;;;;;;4974625;28;20026;-37
2021/10/15 12:11:39;;;;;;;5.30;0.85;;;13.60;99.90;;;;;;4972966;28;20034;-35
2021/10/15 12:14:13;;;;;;;5.32;1.25;;;13.80;99.90;;;;;;4974635;28;20449;-36
2021/10/15 12:16:42;;;;;;;4.43;1.10;;;14.00;99.90;;;;;;4973368;28;20458;-37
2021/10/15 12:19:25;;;;;;;6.88;1.55;;;14.10;99.90;;;;;;4973466;28;20130;-37
2021/10/15 12:22:01;;;;;;;4.85;1.30;;;14.20;99.90;;;;;;4973620;28;20037;-36
2021/10/15 12:24:32;;;;;;;12.32;2.28;;;14.20;99.90;;;;;;4973912;28;20433;-45
2021/10/15 12:27:07;;;;;;;7.13;1.35;;;14.20;99.90;;;;;;4974196;28;20031;-37
2021/10/15 12:29:40;;;;;;;10.65;1.95;;;14.10;99.90;;;;;;4972535;28;20043;-36
2021/10/15 12:32:34;;;;;;;5.75;1.40;;;14.00;99.90;;;;;;4985502;28;20026;-36
2021/10/15 12:35:18;;;;;;;12.27;2.05;;;13.80;99.90;;;;;;4980170;28;20479;-37
2021/10/15 12:37:49;;;;;;;7.65;1.67;;;13.80;99.90;;;;;;4984696;28;20061;-37
2021/10/15 12:40:29;;;;;;;8.18;1.52;;;13.70;99.90;;;;;;4979747;28;20070;-37
2021/10/15 12:43:06;;;;;;;8.50;1.55;;;13.60;99.90;;;;;;4985111;28;20022;-36
2021/10/15 12:45:33;;;;;;;4.85;1.67;;;13.50;99.90;;;;;;4978569;28;20069;-36
2021/10/15 12:48:03;;;;;;;11.10;2.00;;;13.50;99.90;;;;;;4975166;28;20023;-38
2021/10/15 12:50:32;;;;;;;6.13;1.58;;;13.50;99.90;;;;;;4970697;28;20129;-35
2021/10/15 12:53:08;;;;;;;7.53;1.70;;;13.50;99.90;;;;;;4983536;28;20030;-36
2021/10/15 12:55:34;;;;;;;9.07;1.80;;;13.60;99.90;;;;;;4979811;28;20019;-35
2021/10/15 12:58:05;;;;;;;15.77;1.92;;;13.60;99.90;;;;;;4981564;28;20030;-36
2021/10/15 13:00:44;;;;;;;13.63;2.28;;;13.70;99.90;;;;;;4982325;28;20027;-35
2021/10/15 13:03:10;;;;;;;8.63;2.00;;;13.70;99.90;;;;;;4982049;28;20345;-35
2021/10/15 13:05:35;;;;;;;8.35;2.03;;;13.70;98.70;;;;;;4982351;28;20042;-36